sensor_id;sensor_type;location;lat;lon;timestamp;pressure;altitude;pressure_sealevel;temperature;humidity
54042;BME280;41156;51.508;5.406;2023-07-31T00:00:54;100940.91;;;16.45;100.00
54042;BME280;41156;51.508;5.406;2023-07-31T00:03:55;100939.00;;;16.46;100.00
54042;BME280;41156;51.508;5.406;2023-07-31T00:06:55;100940.66;;;16.47;100.00
54042;BME280;41156;51.508;5.406;2023-07-31T00:09:55;100935.19;;;16.47;100.00
54042;BME280;41156;51.508;5.406;2023-07-31T00:12:56;100946.59;;;16.44;100.00
54042;BME280;41156;51.508;5.406;2023-07-31T00:15:57;100947.69;;;16.43;100.00
54042;BME280;41156;51.508;5.406;2023-07-31T00:18:57;100939.50;;;16.43;100.00
54042;BME280;41156;51.508;5.406;2023-07-31T00:21:57;100934.28;;;16.41;100.00
54042;BME280;41156;51.508;5.406;2023-07-31T00:24:57;100936.44;;;16.39;100.00
54042;BME280;41156;51.508;5.406;2023-07-31T00:27:59;100935.63;;;16.39;100.00
54042;BME280;41156;51.508;5.406;2023-07-31T00:31:00;100932.38;;;16.42;100.00
54042;BME280;41156;51.508;5.406;2023-07-31T00:34:00;100931.31;;;16.43;100.00
54042;BME280;41156;51.508;5.406;2023-07-31T00:37:00;100932.97;;;16.44;100.00
54042;BME280;41156;51.508;5.406;2023-07-31T00:40:01;100939.50;;;16.43;100.00
54042;BME280;41156;51.508;5.406;2023-07-31T00:43:03;100931.31;;;16.43;100.00
54042;BME280;41156;51.508;5.406;2023-07-31T00:46:04;100930.00;;;16.45;100.00
54042;BME280;41156;51.508;5.406;2023-07-31T00:49:05;100928.34;;;16.44;100.00
54042;BME280;41156;51.508;5.406;2023-07-31T00:52:06;100922.31;;;16.42;100.00
54042;BME280;41156;51.508;5.406;2023-07-31T00:55:06;100926.41;;;16.45;100.00
54042;BME280;41156;51.508;5.406;2023-07-31T00:58:07;100927.53;;;16.44;100.00
54042;BME280;41156;51.508;5.406;2023-07-31T01:01:07;100917.09;;;16.41;100.00
54042;BME280;41156;51.508;5.406;2023-07-31T01:04:08;100921.75;;;16.40;100.00
54042;BME280;41156;51.508;5.406;2023-07-31T01:07:22;100917.34;;;16.39;100.00
54042;BME280;41156;51.508;5.406;2023-07-31T01:10:30;100913.56;;;16.40;100.00
54042;BME280;41156;51.508;5.406;2023-07-31T01:13:34;100921.47;;;16.42;100.00
54042;BME280;41156;51.508;5.406;2023-07-31T01:16:34;100917.94;;;16.41;100.00
54042;BME280;41156;51.508;5.406;2023-07-31T01:19:34;100920.09;;;16.39;100.00
54042;BME280;41156;51.508;5.406;2023-07-31T01:26:04;100912.72;;;16.40;100.00
54042;BME280;41156;51.508;5.406;2023-07-31T01:29:26;100917.59;;;16.38;100.00
54042;BME280;41156;51.508;5.406;2023-07-31T01:32:31;100915.94;;;16.37;100.00
54042;BME280;41156;51.508;5.406;2023-07-31T01:35:36;100914.56;;;16.34;100.00
54042;BME280;41156;51.508;5.406;2023-07-31T01:38:37;100914.56;;;16.34;100.00
54042;BME280;41156;51.508;5.406;2023-07-31T01:41:37;100913.16;;;16.32;100.00
54042;BME280;41156;51.508;5.406;2023-07-31T01:44:37;100911.53;;;16.31;100.00
54042;BME280;41156;51.508;5.406;2023-07-31T01:47:38;100914.50;;;16.29;100.00
54042;BME280;41156;51.508;5.406;2023-07-31T01:50:38;100908.72;;;16.25;100.00
54042;BME280;41156;51.508;5.406;2023-07-31T01:53:38;100905.66;;;16.22;100.00
54042;BME280;41156;51.508;5.406;2023-07-31T01:56:39;100904.84;;;16.21;100.00
54042;BME280;41156;51.508;5.406;2023-07-31T01:59:39;100902.09;;;16.21;100.00
54042;BME280;41156;51.508;5.406;2023-07-31T02:02:39;100894.19;;;16.20;100.00
54042;BME280;41156;51.508;5.406;2023-07-31T02:05:47;100891.94;;;16.17;100.00
54042;BME280;41156;51.508;5.406;2023-07-31T02:08:47;100888.41;;;16.16;100.00
54042;BME280;41156;51.508;5.406;2023-07-31T02:11:48;100885.94;;;16.15;100.00
54042;BME280;41156;51.508;5.406;2023-07-31T02:14:48;100876.63;;;16.11;100.00
54042;BME280;41156;51.508;5.406;2023-07-31T02:17:48;100877.69;;;16.09;100.00
54042;BME280;41156;51.508;5.406;2023-07-31T02:20:50;100868.09;;;16.07;100.00
54042;BME280;41156;51.508;5.406;2023-07-31T02:23:51;100871.91;;;16.06;100.00
54042;BME280;41156;51.508;5.406;2023-07-31T02:26:51;100857.47;;;16.05;100.00
54042;BME280;41156;51.508;5.406;2023-07-31T02:29:51;100865.28;;;16.02;100.00
54042;BME280;41156;51.508;5.406;2023-07-31T02:32:52;100859.03;;;16.01;100.00
54042;BME280;41156;51.508;5.406;2023-07-31T02:35:52;100864.72;;;16.00;100.00
54042;BME280;41156;51.508;5.406;2023-07-31T02:38:52;100853.25;;;15.98;100.00
54042;BME280;41156;51.508;5.406;2023-07-31T02:41:52;100855.75;;;15.99;100.00
54042;BME280;41156;51.508;5.406;2023-07-31T02:44:53;100844.03;;;15.99;100.00
54042;BME280;41156;51.508;5.406;2023-07-31T02:47:55;100848.63;;;15.98;100.00
54042;BME280;41156;51.508;5.406;2023-07-31T02:50:56;100854.91;;;15.99;100.00
54042;BME280;41156;51.508;5.406;2023-07-31T02:53:56;100853.00;;;15.99;100.00
54042;BME280;41156;51.508;5.406;2023-07-31T02:56:57;100848.63;;;15.98;100.00
54042;BME280;41156;51.508;5.406;2023-07-31T02:59:57;100842.59;;;15.96;100.00
54042;BME280;41156;51.508;5.406;2023-07-31T03:02:57;100847.25;;;15.96;100.00
54042;BME280;41156;51.508;5.406;2023-07-31T03:05:58;100846.66;;;15.94;100.00
54042;BME280;41156;51.508;5.406;2023-07-31T03:08:58;100845.84;;;15.93;100.00
54042;BME280;41156;51.508;5.406;2023-07-31T03:11:58;100842.28;;;15.93;100.00
54042;BME280;41156;51.508;5.406;2023-07-31T03:14:59;100841.72;;;15.90;100.00
54042;BME280;41156;51.508;5.406;2023-07-31T03:17:59;100847.19;;;15.90;100.00
54042;BME280;41156;51.508;5.406;2023-07-31T03:20:59;100840.88;;;15.90;100.00
54042;BME280;41156;51.508;5.406;2023-07-31T03:24:00;100843.59;;;15.90;100.00
54042;BME280;41156;51.508;5.406;2023-07-31T03:27:00;100834.63;;;15.89;100.00
54042;BME280;41156;51.508;5.406;2023-07-31T03:30:00;100834.63;;;15.89;100.00
54042;BME280;41156;51.508;5.406;2023-07-31T03:33:01;100824.28;;;15.91;100.00
54042;BME280;41156;51.508;5.406;2023-07-31T03:36:01;100818.25;;;15.89;100.00
54042;BME280;41156;51.508;5.406;2023-07-31T03:39:02;100824.53;;;15.90;100.00
54042;BME280;41156;51.508;5.406;2023-07-31T03:42:03;100818.00;;;15.91;100.00
54042;BME280;41156;51.508;5.406;2023-07-31T03:45:04;100816.94;;;15.92;100.00
54042;BME280;41156;51.508;5.406;2023-07-31T03:48:05;100815.84;;;15.93;100.00
54042;BME280;41156;51.508;5.406;2023-07-31T03:51:05;100810.16;;;15.95;100.00
54042;BME280;41156;51.508;5.406;2023-07-31T03:54:06;100815.34;;;15.96;100.00
54042;BME280;41156;51.508;5.406;2023-07-31T03:57:07;100797.94;;;15.97;100.00
54042;BME280;41156;51.508;5.406;2023-07-31T04:00:08;100792.25;;;15.99;100.00
54042;BME280;41156;51.508;5.406;2023-07-31T04:03:09;100802.59;;;16.02;100.00
54042;BME280;41156;51.508;5.406;2023-07-31T04:06:09;100790.66;;;16.03;100.00
54042;BME280;41156;51.508;5.406;2023-07-31T04:09:10;100789.59;;;16.04;100.00
54042;BME280;41156;51.508;5.406;2023-07-31T04:12:10;100783.88;;;16.05;100.00
54042;BME280;41156;51.508;5.406;2023-07-31T04:15:11;100776.00;;;16.09;100.00
54042;BME280;41156;51.508;5.406;2023-07-31T04:18:11;100780.38;;;16.10;100.00
54042;BME280;41156;51.508;5.406;2023-07-31T04:21:11;100776.31;;;16.13;100.00
54042;BME280;41156;51.508;5.406;2023-07-31T04:24:12;100768.47;;;16.16;100.00
54042;BME280;41156;51.508;5.406;2023-07-31T04:27:12;100770.94;;;16.18;100.00
54042;BME280;41156;51.508;5.406;2023-07-31T04:30:12;100777.50;;;16.22;100.00
54042;BME280;41156;51.508;5.406;2023-07-31T04:33:13;100765.28;;;16.24;100.00
54042;BME280;41156;51.508;5.406;2023-07-31T04:36:13;100766.94;;;16.25;100.00
54042;BME280;41156;51.508;5.406;2023-07-31T04:39:13;100759.34;;;16.27;100.00
54042;BME280;41156;51.508;5.406;2023-07-31T04:42:14;100755.50;;;16.28;100.00
54042;BME280;41156;51.508;5.406;2023-07-31T04:45:14;100754.19;;;16.31;100.00
54042;BME280;41156;51.508;5.406;2023-07-31T04:48:15;100749.25;;;16.28;100.00
54042;BME280;41156;51.508;5.406;2023-07-31T04:51:15;100740.31;;;16.33;100.00
54042;BME280;41156;51.508;5.406;2023-07-31T04:54:15;100738.69;;;16.37;100.00
54042;BME280;41156;51.508;5.406;2023-07-31T04:57:16;100745.56;;;16.39;100.00
54042;BME280;41156;51.508;5.406;2023-07-31T05:00:16;100741.75;;;16.40;100.00
54042;BME280;41156;51.508;5.406;2023-07-31T05:03:17;100729.50;;;16.43;100.00
54042;BME280;41156;51.508;5.406;2023-07-31T05:06:17;100733.28;;;16.42;100.00
54042;BME280;41156;51.508;5.406;2023-07-31T05:09:17;100733.28;;;16.42;100.00
54042;BME280;41156;51.508;5.406;2023-07-31T05:12:18;100725.41;;;16.40;100.00
54042;BME280;41156;51.508;5.406;2023-07-31T05:15:18;100730.00;;;16.40;100.00
54042;BME280;41156;51.508;5.406;2023-07-31T05:18:19;100726.47;;;16.39;100.00
54042;BME280;41156;51.508;5.406;2023-07-31T05:21:19;100727.03;;;16.41;100.00
54042;BME280;41156;51.508;5.406;2023-07-31T05:24:19;100730.00;;;16.40;100.00
54042;BME280;41156;51.508;5.406;2023-07-31T05:27:19;100723.47;;;16.41;100.00
54042;BME280;41156;51.508;5.406;2023-07-31T05:30:20;100727.03;;;16.41;100.00
54042;BME280;41156;51.508;5.406;2023-07-31T05:33:21;100733.28;;;16.42;100.00
54042;BME280;41156;51.508;5.406;2023-07-31T05:36:21;100727.03;;;16.41;100.00
54042;BME280;41156;51.508;5.406;2023-07-31T05:39:22;100723.75;;;16.39;100.00
54042;BME280;41156;51.508;5.406;2023-07-31T05:42:22;100721.78;;;16.35;100.00
54042;BME280;41156;51.508;5.406;2023-07-31T05:45:22;100708.41;;;16.33;100.00
54042;BME280;41156;51.508;5.406;2023-07-31T05:48:23;100714.34;;;16.30;100.00
54042;BME280;41156;51.508;5.406;2023-07-31T05:51:23;100700.47;;;16.32;100.00
54042;BME280;41156;51.508;5.406;2023-07-31T05:54:24;100699.66;;;16.31;100.00
54042;BME280;41156;51.508;5.406;2023-07-31T05:57:24;100708.91;;;16.30;100.00
54042;BME280;41156;51.508;5.406;2023-07-31T06:00:24;100696.31;;;16.24;100.00
54042;BME280;41156;51.508;5.406;2023-07-31T06:03:25;100712.41;;;16.25;100.00
54042;BME280;41156;51.508;5.406;2023-07-31T06:06:25;100700.66;;;16.25;100.00
54042;BME280;41156;51.508;5.406;2023-07-31T06:09:25;100696.13;;;16.31;100.00
54042;BME280;41156;51.508;5.406;2023-07-31T06:12:26;100698.84;;;16.31;100.00
54042;BME280;41156;51.508;5.406;2023-07-31T06:15:26;100696.13;;;16.31;100.00
54042;BME280;41156;51.508;5.406;2023-07-31T06:18:26;100690.06;;;16.28;100.00
54042;BME280;41156;51.508;5.406;2023-07-31T06:21:27;100688.75;;;16.31;100.00
54042;BME280;41156;51.508;5.406;2023-07-31T06:24:28;100685.22;;;16.31;100.00
54042;BME280;41156;51.508;5.406;2023-07-31T06:27:28;100681.97;;;16.34;100.00
54042;BME280;41156;51.508;5.406;2023-07-31T06:30:28;100680.38;;;16.38;100.00
54042;BME280;41156;51.508;5.406;2023-07-31T06:33:29;100679.84;;;16.41;100.00
54042;BME280;41156;51.508;5.406;2023-07-31T06:36:30;100678.75;;;16.42;100.00
54042;BME280;41156;51.508;5.406;2023-07-31T06:39:30;100681.56;;;16.47;100.00
54042;BME280;41156;51.508;5.406;2023-07-31T06:42:31;100675.03;;;16.53;100.00
54042;BME280;41156;51.508;5.406;2023-07-31T06:45:31;100669.59;;;16.53;100.00
54042;BME280;41156;51.508;5.406;2023-07-31T06:48:31;100668.78;;;16.53;100.00
54042;BME280;41156;51.508;5.406;2023-07-31T06:51:32;100668.78;;;16.53;100.00
54042;BME280;41156;51.508;5.406;2023-07-31T06:54:32;100661.09;;;16.50;100.00
54042;BME280;41156;51.508;5.406;2023-07-31T06:57:32;100661.66;;;16.52;100.00
54042;BME280;41156;51.508;5.406;2023-07-31T07:00:33;100673.16;;;16.54;100.00
54042;BME280;41156;51.508;5.406;2023-07-31T07:03:33;100663.06;;;16.54;100.00
54042;BME280;41156;51.508;5.406;2023-07-31T07:06:34;100655.13;;;16.53;100.00
54042;BME280;41156;51.508;5.406;2023-07-31T07:09:34;100654.38;;;16.57;100.00
54042;BME280;41156;51.508;5.406;2023-07-31T07:12:35;100648.41;;;16.60;100.00
54042;BME280;41156;51.508;5.406;2023-07-31T07:15:36;100648.44;;;16.65;100.00
54042;BME280;41156;51.508;5.406;2023-07-31T07:18:36;100646.28;;;16.68;100.00
54042;BME280;41156;51.508;5.406;2023-07-31T07:21:37;100643.28;;;16.69;100.00
54042;BME280;41156;51.508;5.406;2023-07-31T07:24:37;100647.34;;;16.67;100.00
54042;BME280;41156;51.508;5.406;2023-07-31T07:27:37;100648.47;;;16.71;100.00
54042;BME280;41156;51.508;5.406;2023-07-31T07:30:38;100629.38;;;16.71;100.00
54042;BME280;41156;51.508;5.406;2023-07-31T07:33:38;100640.03;;;16.72;100.00
54042;BME280;41156;51.508;5.406;2023-07-31T07:36:38;100638.13;;;16.73;100.00
54042;BME280;41156;51.508;5.406;2023-07-31T07:39:39;100651.25;;;16.76;100.00
54042;BME280;41156;51.508;5.406;2023-07-31T07:42:39;100649.31;;;16.76;100.00
54042;BME280;41156;51.508;5.406;2023-07-31T07:45:40;100645.53;;;16.77;100.00
54042;BME280;41156;51.508;5.406;2023-07-31T07:48:40;100648.00;;;16.79;100.00
54042;BME280;41156;51.508;5.406;2023-07-31T07:51:40;100647.75;;;16.80;100.00
54042;BME280;41156;51.508;5.406;2023-07-31T07:54:40;100644.75;;;16.82;100.00
54042;BME280;41156;51.508;5.406;2023-07-31T07:57:41;100646.38;;;16.83;100.00
54042;BME280;41156;51.508;5.406;2023-07-31T08:00:41;100649.63;;;16.80;100.00
54042;BME280;41156;51.508;5.406;2023-07-31T08:03:41;100636.28;;;16.83;100.00
54042;BME280;41156;51.508;5.406;2023-07-31T08:06:42;100646.91;;;16.80;100.00
54042;BME280;41156;51.508;5.406;2023-07-31T08:09:42;100639.56;;;16.80;100.00
54042;BME280;41156;51.508;5.406;2023-07-31T08:12:42;100638.44;;;16.81;100.00
54042;BME280;41156;51.508;5.406;2023-07-31T08:15:43;100633.31;;;16.85;100.00
54042;BME280;41156;51.508;5.406;2023-07-31T08:18:43;100630.63;;;16.90;100.00
54042;BME280;41156;51.508;5.406;2023-07-31T08:21:43;100635.00;;;16.91;100.00
54042;BME280;41156;51.508;5.406;2023-07-31T08:24:44;100631.47;;;16.91;100.00
54042;BME280;41156;51.508;5.406;2023-07-31T08:27:44;100633.06;;;16.87;100.00
54042;BME280;41156;51.508;5.406;2023-07-31T08:30:44;100632.78;;;16.88;100.00
54042;BME280;41156;51.508;5.406;2023-07-31T08:33:45;100623.53;;;16.89;100.00
54042;BME280;41156;51.508;5.406;2023-07-31T08:36:45;100631.47;;;16.91;100.00
54042;BME280;41156;51.508;5.406;2023-07-31T08:39:45;100621.88;;;16.88;100.00
54042;BME280;41156;51.508;5.406;2023-07-31T08:42:47;100633.34;;;16.90;100.00
54042;BME280;41156;51.508;5.406;2023-07-31T08:45:50;100627.34;;;16.88;100.00
54042;BME280;41156;51.508;5.406;2023-07-31T08:48:51;100634.97;;;16.86;100.00
54042;BME280;41156;51.508;5.406;2023-07-31T08:51:53;100632.03;;;16.93;100.00
54042;BME280;41156;51.508;5.406;2023-07-31T08:54:54;100631.75;;;16.94;100.00
54042;BME280;41156;51.508;5.406;2023-07-31T08:57:55;100623.88;;;16.98;100.00
54042;BME280;41156;51.508;5.406;2023-07-31T09:00:56;100621.16;;;17.03;100.00
54042;BME280;41156;51.508;5.406;2023-07-31T09:03:59;100620.94;;;17.10;100.00
54042;BME280;41156;51.508;5.406;2023-07-31T09:07:02;100633.50;;;17.11;100.00
54042;BME280;41156;51.508;5.406;2023-07-31T09:10:04;100629.66;;;17.12;100.00
54042;BME280;41156;51.508;5.406;2023-07-31T09:13:05;100623.44;;;17.16;100.00
54042;BME280;41156;51.508;5.406;2023-07-31T09:16:08;100626.44;;;17.20;100.00
54042;BME280;41156;51.508;5.406;2023-07-31T09:19:10;100616.09;;;17.22;100.00
54042;BME280;41156;51.508;5.406;2023-07-31T09:22:10;100602.72;;;17.20;100.00
54042;BME280;41156;51.508;5.406;2023-07-31T09:25:24;100616.09;;;17.22;100.00
54042;BME280;41156;51.508;5.406;2023-07-31T09:28:30;100613.91;;;17.24;100.00
54042;BME280;41156;51.508;5.406;2023-07-31T09:31:41;100612.56;;;17.27;100.00
54042;BME280;41156;51.508;5.406;2023-07-31T09:34:42;100618.88;;;17.32;100.00
54042;BME280;41156;51.508;5.406;2023-07-31T09:37:42;100609.59;;;17.38;100.00
54042;BME280;41156;51.508;5.406;2023-07-31T09:40:47;100608.00;;;17.43;100.00
54042;BME280;41156;51.508;5.406;2023-07-31T09:43:57;100605.56;;;17.46;100.00
54042;BME280;41156;51.508;5.406;2023-07-31T09:46:57;100604.47;;;17.47;100.00
54042;BME280;41156;51.508;5.406;2023-07-31T09:49:58;100599.56;;;17.49;100.00
54042;BME280;41156;51.508;5.406;2023-07-31T09:52:58;100605.28;;;17.48;100.00
54042;BME280;41156;51.508;5.406;2023-07-31T09:55:58;100595.47;;;17.52;100.00
54042;BME280;41156;51.508;5.406;2023-07-31T09:59:00;100602.31;;;17.54;100.00
54042;BME280;41156;51.508;5.406;2023-07-31T10:02:02;100598.22;;;17.57;100.00
54042;BME280;41156;51.508;5.406;2023-07-31T10:05:03;100601.53;;;17.59;100.00
54042;BME280;41156;51.508;5.406;2023-07-31T10:08:04;100583.47;;;17.63;100.00
54042;BME280;41156;51.508;5.406;2023-07-31T10:11:07;100588.41;;;17.66;100.00
54042;BME280;41156;51.508;5.406;2023-07-31T10:14:10;100586.25;;;17.73;100.00
54042;BME280;41156;51.508;5.406;2023-07-31T10:17:11;100575.09;;;17.85;100.00
54042;BME280;41156;51.508;5.406;2023-07-31T10:20:12;100583.63;;;17.99;100.00
54042;BME280;41156;51.508;5.406;2023-07-31T10:23:12;100577.06;;;18.10;100.00
54042;BME280;41156;51.508;5.406;2023-07-31T10:26:14;100574.63;;;18.19;100.00
54042;BME280;41156;51.508;5.406;2023-07-31T10:29:15;100585.81;;;18.23;100.00
54042;BME280;41156;51.508;5.406;2023-07-31T10:32:18;100585.28;;;18.26;100.00
54042;BME280;41156;51.508;5.406;2023-07-31T10:35:20;100586.38;;;18.30;100.00
54042;BME280;41156;51.508;5.406;2023-07-31T10:38:23;100589.09;;;18.30;100.00
54042;BME280;41156;51.508;5.406;2023-07-31T10:41:30;100589.66;;;18.32;100.00
54042;BME280;41156;51.508;5.406;2023-07-31T10:44:34;100585.81;;;18.33;100.00
54042;BME280;41156;51.508;5.406;2023-07-31T10:47:38;100589.38;;;18.28;100.00
54042;BME280;41156;51.508;5.406;2023-07-31T10:53:47;100591.28;;;18.33;100.00
54042;BME280;41156;51.508;5.406;2023-07-31T10:56:51;100590.22;;;18.34;100.00
54042;BME280;41156;51.508;5.406;2023-07-31T11:03:19;100578.72;;;18.32;100.00
54042;BME280;41156;51.508;5.406;2023-07-31T11:06:22;100579.28;;;18.34;100.00
54042;BME280;41156;51.508;5.406;2023-07-31T11:09:23;100575.44;;;18.51;100.00
54042;BME280;41156;51.508;5.406;2023-07-31T11:12:24;100590.47;;;18.63;100.00
54042;BME280;41156;51.508;5.406;2023-07-31T11:15:26;100577.34;;;18.65;100.00
54042;BME280;41156;51.508;5.406;2023-07-31T11:18:27;100572.69;;;18.61;100.00
54042;BME280;41156;51.508;5.406;2023-07-31T11:21:28;100570.78;;;18.61;100.00
54042;BME280;41156;51.508;5.406;2023-07-31T11:24:28;100571.59;;;18.72;100.00
54042;BME280;41156;51.508;5.406;2023-07-31T11:27:28;100578.97;;;18.82;100.00
54042;BME280;41156;51.508;5.406;2023-07-31T11:30:29;100567.19;;;18.86;100.00
54042;BME280;41156;51.508;5.406;2023-07-31T11:33:29;100558.16;;;18.96;100.00
54042;BME280;41156;51.508;5.406;2023-07-31T11:36:29;100561.66;;;19.17;100.00
54042;BME280;41156;51.508;5.406;2023-07-31T11:39:30;100562.13;;;19.30;100.00
54042;BME280;41156;51.508;5.406;2023-07-31T11:42:30;100560.19;;;19.40;100.00
54042;BME280;41156;51.508;5.406;2023-07-31T11:45:30;100567.00;;;19.43;100.00
54042;BME280;41156;51.508;5.406;2023-07-31T11:48:33;100559.94;;;19.37;100.00
54042;BME280;41156;51.508;5.406;2023-07-31T11:51:33;100543.53;;;19.32;100.00
54042;BME280;41156;51.508;5.406;2023-07-31T11:54:34;100564.34;;;19.28;100.00
54042;BME280;41156;51.508;5.406;2023-07-31T11:57:36;100542.72;;;19.21;100.00
54042;BME280;41156;51.508;5.406;2023-07-31T12:00:37;100547.16;;;19.17;100.00
54042;BME280;41156;51.508;5.406;2023-07-31T12:03:38;100550.69;;;19.17;100.00
54042;BME280;41156;51.508;5.406;2023-07-31T12:06:38;100565.78;;;19.10;100.00
54042;BME280;41156;51.508;5.406;2023-07-31T12:13:02;100556.22;;;19.07;100.00
54042;BME280;41156;51.508;5.406;2023-07-31T12:16:03;100549.91;;;19.07;100.00
54042;BME280;41156;51.508;5.406;2023-07-31T12:19:04;100561.41;;;19.09;100.00
54042;BME280;41156;51.508;5.406;2023-07-31T12:22:14;100549.34;;;19.04;100.00
54042;BME280;41156;51.508;5.406;2023-07-31T12:25:15;100538.69;;;18.98;100.00
54042;BME280;41156;51.508;5.406;2023-07-31T12:28:22;100531.91;;;18.90;100.00
54042;BME280;41156;51.508;5.406;2023-07-31T12:31:22;100537.09;;;18.86;100.00
54042;BME280;41156;51.508;5.406;2023-07-31T12:34:22;100530.50;;;18.82;100.00
54042;BME280;41156;51.508;5.406;2023-07-31T12:37:23;100542.03;;;18.74;100.00
54042;BME280;41156;51.508;5.406;2023-07-31T12:40:23;100540.38;;;18.68;100.00
54042;BME280;41156;51.508;5.406;2023-07-31T12:43:23;100525.63;;;18.64;100.00
54042;BME280;41156;51.508;5.406;2023-07-31T12:46:24;100532.19;;;18.63;100.00
54042;BME280;41156;51.508;5.406;2023-07-31T12:49:24;100516.88;;;18.62;100.00
54042;BME280;41156;51.508;5.406;2023-07-31T12:52:25;100504.53;;;18.64;100.00
54042;BME280;41156;51.508;5.406;2023-07-31T12:55:25;100496.03;;;18.71;100.00
54042;BME280;41156;51.508;5.406;2023-07-31T12:58:25;100503.69;;;18.74;100.00
54042;BME280;41156;51.508;5.406;2023-07-31T13:01:26;100507.78;;;18.77;100.00
54042;BME280;41156;51.508;5.406;2023-07-31T13:04:27;100499.03;;;18.80;100.00
54042;BME280;41156;51.508;5.406;2023-07-31T13:07:27;100494.41;;;18.85;100.00
54042;BME280;41156;51.508;5.406;2023-07-31T13:10:27;100480.44;;;18.87;100.00
54042;BME280;41156;51.508;5.406;2023-07-31T13:13:28;100496.00;;;18.92;100.00
54042;BME280;41156;51.508;5.406;2023-07-31T13:16:30;100500.66;;;18.96;100.00
54042;BME280;41156;51.508;5.406;2023-07-31T13:19:30;100510.78;;;18.96;100.00
54042;BME280;41156;51.508;5.406;2023-07-31T13:22:31;100497.38;;;18.94;100.00
54042;BME280;41156;51.508;5.406;2023-07-31T13:25:31;100498.19;;;18.95;100.00
54042;BME280;41156;51.508;5.406;2023-07-31T13:28:31;100485.91;;;18.92;100.00
54042;BME280;41156;51.508;5.406;2023-07-31T13:31:32;100483.69;;;18.94;100.00
54042;BME280;41156;51.508;5.406;2023-07-31T13:34:32;100469.22;;;18.89;100.00
54042;BME280;41156;51.508;5.406;2023-07-31T13:37:32;100464.56;;;18.84;100.00
54042;BME280;41156;51.508;5.406;2023-07-31T13:40:33;100464.00;;;18.82;100.00
54042;BME280;41156;51.508;5.406;2023-07-31T13:43:33;100475.78;;;18.88;100.00
54042;BME280;41156;51.508;5.406;2023-07-31T13:46:33;100464.81;;;18.88;100.00
54042;BME280;41156;51.508;5.406;2023-07-31T13:49:34;100477.69;;;18.87;100.00
54042;BME280;41156;51.508;5.406;2023-07-31T13:52:34;100470.00;;;18.94;100.00
54042;BME280;41156;51.508;5.406;2023-07-31T13:55:35;100482.63;;;18.90;100.00
54042;BME280;41156;51.508;5.406;2023-07-31T13:58:35;100460.72;;;18.85;100.00
54042;BME280;41156;51.508;5.406;2023-07-31T14:01:36;100471.66;;;18.85;100.00
54042;BME280;41156;51.508;5.406;2023-07-31T14:04:36;100470.56;;;18.81;100.00
54042;BME280;41156;51.508;5.406;2023-07-31T14:07:36;100481.00;;;18.74;100.00
54042;BME280;41156;51.508;5.406;2023-07-31T14:10:37;100484.28;;;18.71;100.00
54042;BME280;41156;51.508;5.406;2023-07-31T14:13:37;100482.38;;;18.66;100.00
54042;BME280;41156;51.508;5.406;2023-07-31T14:16:37;100471.19;;;18.62;100.00
54042;BME280;41156;51.508;5.406;2023-07-31T14:19:38;100467.34;;;18.58;100.00
54042;BME280;41156;51.508;5.406;2023-07-31T14:22:38;100458.59;;;18.56;100.00
54042;BME280;41156;51.508;5.406;2023-07-31T14:25:39;100456.13;;;18.55;100.00
54042;BME280;41156;51.508;5.406;2023-07-31T14:28:39;100464.34;;;18.55;100.00
54042;BME280;41156;51.508;5.406;2023-07-31T14:31:39;100455.31;;;18.54;100.00
54042;BME280;41156;51.508;5.406;2023-07-31T14:34:39;100454.78;;;18.57;100.00
54042;BME280;41156;51.508;5.406;2023-07-31T14:37:41;100446.28;;;18.64;100.00
54042;BME280;41156;51.508;5.406;2023-07-31T14:40:41;100442.97;;;18.67;100.00
54042;BME280;41156;51.508;5.406;2023-07-31T14:43:42;100440.78;;;18.69;100.00
54042;BME280;41156;51.508;5.406;2023-07-31T14:46:42;100436.69;;;18.61;100.00
54042;BME280;41156;51.508;5.406;2023-07-31T14:49:43;100432.03;;;18.57;100.00
54042;BME280;41156;51.508;5.406;2023-07-31T14:52:43;100423.84;;;18.52;100.00
54042;BME280;41156;51.508;5.406;2023-07-31T14:55:44;100415.66;;;18.52;100.00
54042;BME280;41156;51.508;5.406;2023-07-31T14:58:44;100411.00;;;18.52;100.00
54042;BME280;41156;51.508;5.406;2023-07-31T15:01:44;100408.56;;;18.51;100.00
54042;BME280;41156;51.508;5.406;2023-07-31T15:04:44;100406.94;;;18.39;100.00
54042;BME280;41156;51.508;5.406;2023-07-31T15:07:45;100410.75;;;18.38;100.00
54042;BME280;41156;51.508;5.406;2023-07-31T15:10:45;100396.81;;;18.40;100.00
54042;BME280;41156;51.508;5.406;2023-07-31T15:13:46;100398.72;;;18.44;100.00
54042;BME280;41156;51.508;5.406;2023-07-31T15:16:49;100391.31;;;18.45;100.00
54042;BME280;41156;51.508;5.406;2023-07-31T15:19:49;100387.25;;;18.42;100.00
54042;BME280;41156;51.508;5.406;2023-07-31T15:22:50;100389.44;;;18.40;100.00
54042;BME280;41156;51.508;5.406;2023-07-31T15:25:50;100377.94;;;18.38;100.00
54042;BME280;41156;51.508;5.406;2023-07-31T15:29:00;100370.28;;;18.35;100.00
54042;BME280;41156;51.508;5.406;2023-07-31T15:32:01;100381.25;;;18.30;100.00
54042;BME280;41156;51.508;5.406;2023-07-31T15:35:01;100376.34;;;18.27;100.00
54042;BME280;41156;51.508;5.406;2023-07-31T15:38:02;100371.16;;;18.20;100.00
54042;BME280;41156;51.508;5.406;2023-07-31T15:41:02;100357.22;;;18.11;100.00
54042;BME280;41156;51.508;5.406;2023-07-31T15:44:04;100361.09;;;18.05;100.00
54042;BME280;41156;51.508;5.406;2023-07-31T15:47:04;100343.84;;;18.00;100.00